sensor_id;sensor_type;location;lat;lon;timestamp;P1;P2;P0
50866;PMS7003;36839;51.946;21.002;2023-06-14T00:01:35;13.00;12.00;9.00
50866;PMS7003;36839;51.946;21.002;2023-06-14T00:04:06;14.00;14.00;11.00
50866;PMS7003;36839;51.946;21.002;2023-06-14T00:06:38;17.67;14.67;13.00
50866;PMS7003;36839;51.946;21.002;2023-06-14T00:09:08;21.50;20.00;15.00
50866;PMS7003;36839;51.946;21.002;2023-06-14T00:11:35;21.50;15.00;11.50
50866;PMS7003;36839;51.946;21.002;2023-06-14T00:14:04;24.00;20.00;14.00
50866;PMS7003;36839;51.946;21.002;2023-06-14T00:16:31;25.50;22.50;16.00
50866;PMS7003;36839;51.946;21.002;2023-06-14T00:19:04;20.00;18.00;14.50
50866;PMS7003;36839;51.946;21.002;2023-06-14T00:21:31;18.00;16.00;13.00
50866;PMS7003;36839;51.946;21.002;2023-06-14T00:23:59;20.50;18.00;14.50
50866;PMS7003;36839;51.946;21.002;2023-06-14T00:26:28;16.00;13.00;11.00
50866;PMS7003;36839;51.946;21.002;2023-06-14T00:28:57;17.00;15.00;12.50
50866;PMS7003;36839;51.946;21.002;2023-06-14T00:31:27;16.00;16.00;13.00
50866;PMS7003;36839;51.946;21.002;2023-06-14T00:34:00;16.50;16.50;14.00
50866;PMS7003;36839;51.946;21.002;2023-06-14T00:36:29;14.67;13.67;12.00
50866;PMS7003;36839;51.946;21.002;2023-06-14T00:38:59;20.00;20.00;16.00
50866;PMS7003;36839;51.946;21.002;2023-06-14T00:41:30;16.00;15.00;13.00
50866;PMS7003;36839;51.946;21.002;2023-06-14T00:44:01;13.00;13.00;10.00
50866;PMS7003;36839;51.946;21.002;2023-06-14T00:46:29;13.67;13.67;11.00
50866;PMS7003;36839;51.946;21.002;2023-06-14T00:48:58;13.50;11.50;10.50
50866;PMS7003;36839;51.946;21.002;2023-06-14T00:51:33;14.00;14.00;12.00
50866;PMS7003;36839;51.946;21.002;2023-06-14T00:54:01;16.00;16.00;13.00
50866;PMS7003;36839;51.946;21.002;2023-06-14T00:56:31;17.50;15.00;11.00
50866;PMS7003;36839;51.946;21.002;2023-06-14T00:59:00;15.00;15.00;11.00
50866;PMS7003;36839;51.946;21.002;2023-06-14T01:01:28;15.00;13.00;10.00
50866;PMS7003;36839;51.946;21.002;2023-06-14T01:04:04;18.00;12.00;9.00
50866;PMS7003;36839;51.946;21.002;2023-06-14T01:16:07;17.00;15.00;13.00
50866;PMS7003;36839;51.946;21.002;2023-06-14T01:18:36;17.00;17.00;12.00
50866;PMS7003;36839;51.946;21.002;2023-06-14T01:21:03;16.00;13.00;10.00
50866;PMS7003;36839;51.946;21.002;2023-06-14T01:23:36;12.00;12.00;10.00
50866;PMS7003;36839;51.946;21.002;2023-06-14T01:28:45;15.00;15.00;12.00
50866;PMS7003;36839;51.946;21.002;2023-06-14T01:31:29;19.00;16.50;14.00
50866;PMS7003;36839;51.946;21.002;2023-06-14T01:34:08;19.00;17.00;14.00
50866;PMS7003;36839;51.946;21.002;2023-06-14T01:39:21;13.00;12.00;7.00
50866;PMS7003;36839;51.946;21.002;2023-06-14T01:41:49;19.00;15.00;11.00
50866;PMS7003;36839;51.946;21.002;2023-06-14T01:44:18;20.00;17.50;13.50
50866;PMS7003;36839;51.946;21.002;2023-06-14T01:46:46;20.00;19.00;13.00
50866;PMS7003;36839;51.946;21.002;2023-06-14T01:49:17;17.00;17.00;12.50
50866;PMS7003;36839;51.946;21.002;2023-06-14T01:51:44;19.00;16.00;14.00
50866;PMS7003;36839;51.946;21.002;2023-06-14T01:54:11;21.00;17.50;13.50
50866;PMS7003;36839;51.946;21.002;2023-06-14T01:56:41;19.00;16.00;15.00
50866;PMS7003;36839;51.946;21.002;2023-06-14T01:59:08;20.00;19.00;14.00
50866;PMS7003;36839;51.946;21.002;2023-06-14T02:01:40;21.50;19.00;15.50
50866;PMS7003;36839;51.946;21.002;2023-06-14T02:04:10;20.00;20.00;15.00
50866;PMS7003;36839;51.946;21.002;2023-06-14T02:06:38;19.50;17.50;13.00
50866;PMS7003;36839;51.946;21.002;2023-06-14T02:09:08;19.00;17.00;13.00
50866;PMS7003;36839;51.946;21.002;2023-06-14T02:11:35;23.00;19.00;15.00
50866;PMS7003;36839;51.946;21.002;2023-06-14T02:14:04;22.00;17.50;14.50
50866;PMS7003;36839;51.946;21.002;2023-06-14T02:16:41;19.00;19.00;13.50
50866;PMS7003;36839;51.946;21.002;2023-06-14T02:19:16;23.00;20.00;14.33
50866;PMS7003;36839;51.946;21.002;2023-06-14T02:21:44;22.00;21.00;16.00
50866;PMS7003;36839;51.946;21.002;2023-06-14T02:24:13;22.00;20.00;15.00
50866;PMS7003;36839;51.946;21.002;2023-06-14T02:26:45;20.00;20.00;15.00
50866;PMS7003;36839;51.946;21.002;2023-06-14T02:29:12;20.00;20.00;18.00
50866;PMS7003;36839;51.946;21.002;2023-06-14T02:31:42;24.00;20.00;15.00
50866;PMS7003;36839;51.946;21.002;2023-06-14T02:34:11;20.00;20.00;15.00
50866;PMS7003;36839;51.946;21.002;2023-06-14T02:36:45;30.00;21.00;18.00
50866;PMS7003;36839;51.946;21.002;2023-06-14T02:39:24;21.00;18.00;12.50
50866;PMS7003;36839;51.946;21.002;2023-06-14T02:41:54;21.00;20.00;13.00
50866;PMS7003;36839;51.946;21.002;2023-06-14T02:44:26;18.00;18.00;12.33
50866;PMS7003;36839;51.946;21.002;2023-06-14T02:47:02;19.00;17.00;12.00
50866;PMS7003;36839;51.946;21.002;2023-06-14T02:49:32;20.00;18.00;16.00
50866;PMS7003;36839;51.946;21.002;2023-06-14T02:52:01;20.00;16.00;13.00
50866;PMS7003;36839;51.946;21.002;2023-06-14T02:54:35;17.33;16.00;11.00
50866;PMS7003;36839;51.946;21.002;2023-06-14T02:57:21;12.33;12.33;12.33
50866;PMS7003;36839;51.946;21.002;2023-06-14T02:59:50;0.00;0.00;0.00
50866;PMS7003;36839;51.946;21.002;2023-06-14T03:02:17;0.00;0.00;0.00
50866;PMS7003;36839;51.946;21.002;2023-06-14T03:04:46;0.00;0.00;0.00
50866;PMS7003;36839;51.946;21.002;2023-06-14T03:07:13;0.00;0.00;0.00
50866;PMS7003;36839;51.946;21.002;2023-06-14T03:09:46;0.00;0.00;0.00
50866;PMS7003;36839;51.946;21.002;2023-06-14T03:12:15;0.00;0.00;0.00
50866;PMS7003;36839;51.946;21.002;2023-06-14T03:14:42;0.00;0.00;0.00
50866;PMS7003;36839;51.946;21.002;2023-06-14T03:19:41;0.00;0.00;0.00
50866;PMS7003;36839;51.946;21.002;2023-06-14T03:22:10;0.00;0.00;0.00
50866;PMS7003;36839;51.946;21.002;2023-06-14T03:24:41;0.00;0.00;0.00
50866;PMS7003;36839;51.946;21.002;2023-06-14T03:27:11;0.00;0.00;0.00
50866;PMS7003;36839;51.946;21.002;2023-06-14T03:29:48;0.00;0.00;0.00
50866;PMS7003;36839;51.946;21.002;2023-06-14T03:32:16;0.00;0.00;0.00
50866;PMS7003;36839;51.946;21.002;2023-06-14T03:34:43;0.00;0.00;0.00
50866;PMS7003;36839;51.946;21.002;2023-06-14T03:37:12;0.00;0.00;0.00
50866;PMS7003;36839;51.946;21.002;2023-06-14T03:42:04;0.00;0.00;0.00
50866;PMS7003;36839;51.946;21.002;2023-06-14T03:44:35;0.00;0.00;0.00
50866;PMS7003;36839;51.946;21.002;2023-06-14T03:47:05;0.00;0.00;0.00
50866;PMS7003;36839;51.946;21.002;2023-06-14T03:49:34;0.00;0.00;0.00
50866;PMS7003;36839;51.946;21.002;2023-06-14T03:52:13;0.00;0.00;0.00
50866;PMS7003;36839;51.946;21.002;2023-06-14T03:54:43;2.33;2.33;2.33
50866;PMS7003;36839;51.946;21.002;2023-06-14T03:57:16;0.00;0.00;0.00
50866;PMS7003;36839;51.946;21.002;2023-06-14T03:59:42;0.00;0.00;0.00
50866;PMS7003;36839;51.946;21.002;2023-06-14T04:02:10;0.00;0.00;0.00
50866;PMS7003;36839;51.946;21.002;2023-06-14T04:04:38;0.00;0.00;0.00
50866;PMS7003;36839;51.946;21.002;2023-06-14T04:07:12;0.00;0.00;0.00
50866;PMS7003;36839;51.946;21.002;2023-06-14T04:09:39;0.00;0.00;0.00
50866;PMS7003;36839;51.946;21.002;2023-06-14T04:12:07;0.00;0.00;0.00
50866;PMS7003;36839;51.946;21.002;2023-06-14T04:14:39;0.00;0.00;0.00
50866;PMS7003;36839;51.946;21.002;2023-06-14T04:17:09;0.00;0.00;0.00
50866;PMS7003;36839;51.946;21.002;2023-06-14T04:19:39;0.00;0.00;0.00
50866;PMS7003;36839;51.946;21.002;2023-06-14T04:22:05;0.00;0.00;0.00
50866;PMS7003;36839;51.946;21.002;2023-06-14T04:24:34;0.00;0.00;0.00
50866;PMS7003;36839;51.946;21.002;2023-06-14T04:27:02;0.00;0.00;0.00
50866;PMS7003;36839;51.946;21.002;2023-06-14T04:29:35;0.00;0.00;0.00
50866;PMS7003;36839;51.946;21.002;2023-06-14T04:32:09;0.00;0.00;0.00
50866;PMS7003;36839;51.946;21.002;2023-06-14T04:34:39;0.00;0.00;0.00
50866;PMS7003;36839;51.946;21.002;2023-06-14T04:37:07;0.00;0.00;0.00
50866;PMS7003;36839;51.946;21.002;2023-06-14T04:39:38;0.00;0.00;0.00
50866;PMS7003;36839;51.946;21.002;2023-06-14T04:42:16;0.00;0.00;0.00
50866;PMS7003;36839;51.946;21.002;2023-06-14T04:44:49;2.00;2.00;2.00
50866;PMS7003;36839;51.946;21.002;2023-06-14T04:47:17;0.00;0.00;0.00
50866;PMS7003;36839;51.946;21.002;2023-06-14T04:49:50;0.00;0.00;0.00
50866;PMS7003;36839;51.946;21.002;2023-06-14T04:52:22;0.00;0.00;0.00
50866;PMS7003;36839;51.946;21.002;2023-06-14T04:55:03;0.00;0.00;0.00
50866;PMS7003;36839;51.946;21.002;2023-06-14T04:57:31;0.00;0.00;0.00
50866;PMS7003;36839;51.946;21.002;2023-06-14T04:59:58;0.00;0.00;0.00
50866;PMS7003;36839;51.946;21.002;2023-06-14T05:02:27;0.00;0.00;0.00
50866;PMS7003;36839;51.946;21.002;2023-06-14T05:04:56;0.00;0.00;0.00
50866;PMS7003;36839;51.946;21.002;2023-06-14T05:07:26;0.00;0.00;0.00
50866;PMS7003;36839;51.946;21.002;2023-06-14T05:09:53;0.00;0.00;0.00
50866;PMS7003;36839;51.946;21.002;2023-06-14T05:12:21;0.00;0.00;0.00
50866;PMS7003;36839;51.946;21.002;2023-06-14T05:14:47;0.00;0.00;0.00
50866;PMS7003;36839;51.946;21.002;2023-06-14T05:17:15;12.00;12.00;12.00
50866;PMS7003;36839;51.946;21.002;2023-06-14T05:19:44;0.00;0.00;0.00
50866;PMS7003;36839;51.946;21.002;2023-06-14T05:22:12;0.00;0.00;0.00
50866;PMS7003;36839;51.946;21.002;2023-06-14T05:24:43;0.00;0.00;0.00
50866;PMS7003;36839;51.946;21.002;2023-06-14T05:27:12;0.00;0.00;0.00
50866;PMS7003;36839;51.946;21.002;2023-06-14T05:29:46;1.00;1.00;1.00
50866;PMS7003;36839;51.946;21.002;2023-06-14T05:32:16;0.00;0.00;0.00
50866;PMS7003;36839;51.946;21.002;2023-06-14T05:34:47;0.00;0.00;0.00
50866;PMS7003;36839;51.946;21.002;2023-06-14T05:37:15;0.00;0.00;0.00
50866;PMS7003;36839;51.946;21.002;2023-06-14T05:39:43;0.00;0.00;0.00
50866;PMS7003;36839;51.946;21.002;2023-06-14T05:42:11;0.00;0.00;0.00
50866;PMS7003;36839;51.946;21.002;2023-06-14T05:44:39;0.00;0.00;0.00
50866;PMS7003;36839;51.946;21.002;2023-06-14T05:47:07;0.00;0.00;0.00
50866;PMS7003;36839;51.946;21.002;2023-06-14T05:49:40;0.00;0.00;0.00
50866;PMS7003;36839;51.946;21.002;2023-06-14T05:52:09;0.00;0.00;0.00
50866;PMS7003;36839;51.946;21.002;2023-06-14T05:54:36;2.00;0.00;0.00
50866;PMS7003;36839;51.946;21.002;2023-06-14T05:57:04;0.00;0.00;0.00
50866;PMS7003;36839;51.946;21.002;2023-06-14T05:59:32;0.00;0.00;0.00
50866;PMS7003;36839;51.946;21.002;2023-06-14T06:02:00;0.00;0.00;0.00
50866;PMS7003;36839;51.946;21.002;2023-06-14T06:04:29;0.00;0.00;0.00
50866;PMS7003;36839;51.946;21.002;2023-06-14T06:06:58;0.00;0.00;0.00
50866;PMS7003;36839;51.946;21.002;2023-06-14T06:09:32;0.00;0.00;0.00
50866;PMS7003;36839;51.946;21.002;2023-06-14T06:12:05;0.00;0.00;0.00
50866;PMS7003;36839;51.946;21.002;2023-06-14T06:14:33;0.00;0.00;0.00
50866;PMS7003;36839;51.946;21.002;2023-06-14T06:17:02;0.00;0.00;0.00
50866;PMS7003;36839;51.946;21.002;2023-06-14T06:19:29;0.00;0.00;0.00
50866;PMS7003;36839;51.946;21.002;2023-06-14T06:21:55;0.00;0.00;0.00
50866;PMS7003;36839;51.946;21.002;2023-06-14T06:24:23;0.00;0.00;0.00
50866;PMS7003;36839;51.946;21.002;2023-06-14T06:26:50;0.00;0.00;0.00
50866;PMS7003;36839;51.946;21.002;2023-06-14T06:29:16;0.00;0.00;0.00
50866;PMS7003;36839;51.946;21.002;2023-06-14T06:31:44;0.00;0.00;0.00
50866;PMS7003;36839;51.946;21.002;2023-06-14T06:34:13;0.00;0.00;0.00
50866;PMS7003;36839;51.946;21.002;2023-06-14T06:36:43;0.00;0.00;0.00
50866;PMS7003;36839;51.946;21.002;2023-06-14T06:39:13;0.00;0.00;0.00
50866;PMS7003;36839;51.946;21.002;2023-06-14T06:41:40;0.00;0.00;0.00
50866;PMS7003;36839;51.946;21.002;2023-06-14T06:44:08;0.00;0.00;0.00
50866;PMS7003;36839;51.946;21.002;2023-06-14T06:46:45;0.00;0.00;0.00
50866;PMS7003;36839;51.946;21.002;2023-06-14T06:49:16;0.00;0.00;0.00
50866;PMS7003;36839;51.946;21.002;2023-06-14T06:52:04;0.00;0.00;0.00
50866;PMS7003;36839;51.946;21.002;2023-06-14T06:54:36;0.00;0.00;0.00
50866;PMS7003;36839;51.946;21.002;2023-06-14T06:57:03;0.00;0.00;0.00
50866;PMS7003;36839;51.946;21.002;2023-06-14T06:59:31;0.00;0.00;0.00
50866;PMS7003;36839;51.946;21.002;2023-06-14T07:02:10;0.00;0.00;0.00
50866;PMS7003;36839;51.946;21.002;2023-06-14T07:04:38;0.00;0.00;0.00
50866;PMS7003;36839;51.946;21.002;2023-06-14T07:07:06;0.00;0.00;0.00
50866;PMS7003;36839;51.946;21.002;2023-06-14T07:09:33;0.00;0.00;0.00
50866;PMS7003;36839;51.946;21.002;2023-06-14T07:12:03;0.00;0.00;0.00
50866;PMS7003;36839;51.946;21.002;2023-06-14T07:14:39;0.00;0.00;0.00
50866;PMS7003;36839;51.946;21.002;2023-06-14T07:17:06;0.00;0.00;0.00
50866;PMS7003;36839;51.946;21.002;2023-06-14T07:19:32;0.00;0.00;0.00
50866;PMS7003;36839;51.946;21.002;2023-06-14T07:22:02;0.00;0.00;0.00
50866;PMS7003;36839;51.946;21.002;2023-06-14T07:24:39;0.00;0.00;0.00
50866;PMS7003;36839;51.946;21.002;2023-06-14T07:27:09;0.00;0.00;0.00
50866;PMS7003;36839;51.946;21.002;2023-06-14T07:29:50;0.00;0.00;0.00
50866;PMS7003;36839;51.946;21.002;2023-06-14T07:32:17;0.00;0.00;0.00
50866;PMS7003;36839;51.946;21.002;2023-06-14T07:34:44;0.00;0.00;0.00
50866;PMS7003;36839;51.946;21.002;2023-06-14T07:37:13;0.00;0.00;0.00
50866;PMS7003;36839;51.946;21.002;2023-06-14T07:39:43;0.00;0.00;0.00
50866;PMS7003;36839;51.946;21.002;2023-06-14T07:42:09;0.00;0.00;0.00
50866;PMS7003;36839;51.946;21.002;2023-06-14T07:44:39;4.00;4.00;4.00
50866;PMS7003;36839;51.946;21.002;2023-06-14T07:47:08;0.00;0.00;0.00
50866;PMS7003;36839;51.946;21.002;2023-06-14T07:49:35;0.00;0.00;0.00
50866;PMS7003;36839;51.946;21.002;2023-06-14T07:52:07;0.00;0.00;0.00
50866;PMS7003;36839;51.946;21.002;2023-06-14T07:54:36;0.00;0.00;0.00
50866;PMS7003;36839;51.946;21.002;2023-06-14T07:57:05;0.00;0.00;0.00
50866;PMS7003;36839;51.946;21.002;2023-06-14T07:59:32;0.00;0.00;0.00
50866;PMS7003;36839;51.946;21.002;2023-06-14T08:01:59;0.00;0.00;0.00
50866;PMS7003;36839;51.946;21.002;2023-06-14T08:04:26;0.00;0.00;0.00
50866;PMS7003;36839;51.946;21.002;2023-06-14T08:06:54;0.00;0.00;0.00
50866;PMS7003;36839;51.946;21.002;2023-06-14T08:09:22;0.00;0.00;0.00
50866;PMS7003;36839;51.946;21.002;2023-06-14T08:12:04;0.00;0.00;0.00
50866;PMS7003;36839;51.946;21.002;2023-06-14T08:14:42;0.00;0.00;0.00
50866;PMS7003;36839;51.946;21.002;2023-06-14T08:17:11;0.00;0.00;0.00
50866;PMS7003;36839;51.946;21.002;2023-06-14T08:19:40;0.00;0.00;0.00
50866;PMS7003;36839;51.946;21.002;2023-06-14T08:22:07;0.00;0.00;0.00
50866;PMS7003;36839;51.946;21.002;2023-06-14T08:24:38;0.00;0.00;0.00
50866;PMS7003;36839;51.946;21.002;2023-06-14T08:27:08;0.00;0.00;0.00
50866;PMS7003;36839;51.946;21.002;2023-06-14T08:29:43;0.00;0.00;0.00
50866;PMS7003;36839;51.946;21.002;2023-06-14T08:32:09;0.00;0.00;0.00
50866;PMS7003;36839;51.946;21.002;2023-06-14T08:34:39;0.00;0.00;0.00
50866;PMS7003;36839;51.946;21.002;2023-06-14T08:37:12;0.00;0.00;0.00
50866;PMS7003;36839;51.946;21.002;2023-06-14T08:39:41;0.00;0.00;0.00
50866;PMS7003;36839;51.946;21.002;2023-06-14T08:42:08;0.00;0.00;0.00
50866;PMS7003;36839;51.946;21.002;2023-06-14T08:44:49;0.00;0.00;0.00
50866;PMS7003;36839;51.946;21.002;2023-06-14T08:47:21;0.00;0.00;0.00
50866;PMS7003;36839;51.946;21.002;2023-06-14T08:49:56;0.00;0.00;0.00
50866;PMS7003;36839;51.946;21.002;2023-06-14T08:52:35;0.00;0.00;0.00
50866;PMS7003;36839;51.946;21.002;2023-06-14T08:55:18;0.00;0.00;0.00
50866;PMS7003;36839;51.946;21.002;2023-06-14T08:57:53;0.00;0.00;0.00
50866;PMS7003;36839;51.946;21.002;2023-06-14T09:00:31;0.00;0.00;0.00
50866;PMS7003;36839;51.946;21.002;2023-06-14T09:02:59;1.00;1.00;1.00
50866;PMS7003;36839;51.946;21.002;2023-06-14T09:05:29;0.00;0.00;0.00
50866;PMS7003;36839;51.946;21.002;2023-06-14T09:07:58;0.00;0.00;0.00
50866;PMS7003;36839;51.946;21.002;2023-06-14T09:10:43;0.00;0.00;0.00
50866;PMS7003;36839;51.946;21.002;2023-06-14T09:13:20;0.00;0.00;0.00
50866;PMS7003;36839;51.946;21.002;2023-06-14T09:15:50;0.00;0.00;0.00
50866;PMS7003;36839;51.946;21.002;2023-06-14T09:18:19;0.00;0.00;0.00
50866;PMS7003;36839;51.946;21.002;2023-06-14T09:21:09;0.00;0.00;0.00
50866;PMS7003;36839;51.946;21.002;2023-06-14T09:23:45;0.00;0.00;0.00
50866;PMS7003;36839;51.946;21.002;2023-06-14T09:26:17;0.00;0.00;0.00
50866;PMS7003;36839;51.946;21.002;2023-06-14T09:28:48;0.00;0.00;0.00
50866;PMS7003;36839;51.946;21.002;2023-06-14T09:31:18;0.00;0.00;0.00
50866;PMS7003;36839;51.946;21.002;2023-06-14T09:33:48;0.00;0.00;0.00
50866;PMS7003;36839;51.946;21.002;2023-06-14T09:36:24;13.00;13.00;9.00
50866;PMS7003;36839;51.946;21.002;2023-06-14T09:39:03;0.00;0.00;0.00
50866;PMS7003;36839;51.946;21.002;2023-06-14T09:44:20;0.00;0.00;0.00
50866;PMS7003;36839;51.946;21.002;2023-06-14T09:46:50;0.00;0.00;0.00
50866;PMS7003;36839;51.946;21.002;2023-06-14T09:49:19;0.00;0.00;0.00
50866;PMS7003;36839;51.946;21.002;2023-06-14T09:51:46;0.00;0.00;0.00
50866;PMS7003;36839;51.946;21.002;2023-06-14T09:54:24;1.00;1.00;0.00
50866;PMS7003;36839;51.946;21.002;2023-06-14T09:56:57;0.00;0.00;0.00
50866;PMS7003;36839;51.946;21.002;2023-06-14T09:59:27;0.00;0.00;0.00
50866;PMS7003;36839;51.946;21.002;2023-06-14T10:02:05;0.00;0.00;0.00
50866;PMS7003;36839;51.946;21.002;2023-06-14T10:04:36;0.00;0.00;0.00
50866;PMS7003;36839;51.946;21.002;2023-06-14T10:07:07;0.00;0.00;0.00
50866;PMS7003;36839;51.946;21.002;2023-06-14T10:09:37;0.00;0.00;0.00
50866;PMS7003;36839;51.946;21.002;2023-06-14T10:12:19;0.00;0.00;0.00
50866;PMS7003;36839;51.946;21.002;2023-06-14T10:14:52;0.00;0.00;0.00
50866;PMS7003;36839;51.946;21.002;2023-06-14T10:17:26;0.00;0.00;0.00
50866;PMS7003;36839;51.946;21.002;2023-06-14T10:20:26;0.00;0.00;0.00
50866;PMS7003;36839;51.946;21.002;2023-06-14T10:23:19;0.00;0.00;0.00
50866;PMS7003;36839;51.946;21.002;2023-06-14T10:25:50;0.00;0.00;0.00
50866;PMS7003;36839;51.946;21.002;2023-06-14T10:28:23;0.00;0.00;0.00
50866;PMS7003;36839;51.946;21.002;2023-06-14T10:33:52;0.00;0.00;0.00
50866;PMS7003;36839;51.946;21.002;2023-06-14T10:36:29;0.00;0.00;0.00
50866;PMS7003;36839;51.946;21.002;2023-06-14T10:41:53;0.00;0.00;0.00
50866;PMS7003;36839;51.946;21.002;2023-06-14T10:47:01;0.00;0.00;0.00
50866;PMS7003;36839;51.946;21.002;2023-06-14T10:53:50;0.00;0.00;0.00
50866;PMS7003;36839;51.946;21.002;2023-06-14T10:58:58;0.00;0.00;0.00
50866;PMS7003;36839;51.946;21.002;2023-06-14T11:01:41;0.00;0.00;0.00
50866;PMS7003;36839;51.946;21.002;2023-06-14T11:04:20;0.00;0.00;0.00
50866;PMS7003;36839;51.946;21.002;2023-06-14T11:06:48;0.00;0.00;0.00
50866;PMS7003;36839;51.946;21.002;2023-06-14T11:12:33;0.00;0.00;0.00
50866;PMS7003;36839;51.946;21.002;2023-06-14T11:15:08;0.00;0.00;0.00
50866;PMS7003;36839;51.946;21.002;2023-06-14T11:18:13;0.00;0.00;0.00
50866;PMS7003;36839;51.946;21.002;2023-06-14T11:20:42;0.00;0.00;0.00
50866;PMS7003;36839;51.946;21.002;2023-06-14T11:23:12;0.00;0.00;0.00
50866;PMS7003;36839;51.946;21.002;2023-06-14T11:25:39;0.00;0.00;0.00
50866;PMS7003;36839;51.946;21.002;2023-06-14T11:28:09;0.00;0.00;0.00
50866;PMS7003;36839;51.946;21.002;2023-06-14T11:32:02;0.00;0.00;0.00
50866;PMS7003;36839;51.946;21.002;2023-06-14T11:34:33;0.00;0.00;0.00
50866;PMS7003;36839;51.946;21.002;2023-06-14T11:37:05;0.00;0.00;0.00
50866;PMS7003;36839;51.946;21.002;2023-06-14T11:39:35;0.00;0.00;0.00
50866;PMS7003;36839;51.946;21.002;2023-06-14T11:42:02;0.00;0.00;0.00
50866;PMS7003;36839;51.946;21.002;2023-06-14T11:44:31;0.00;0.00;0.00
50866;PMS7003;36839;51.946;21.002;2023-06-14T11:47:03;0.00;0.00;0.00
50866;PMS7003;36839;51.946;21.002;2023-06-14T11:49:35;0.00;0.00;0.00
50866;PMS7003;36839;51.946;21.002;2023-06-14T11:52:07;6.00;6.00;6.00
50866;PMS7003;36839;51.946;21.002;2023-06-14T11:54:39;0.00;0.00;0.00
50866;PMS7003;36839;51.946;21.002;2023-06-14T11:57:08;0.00;0.00;0.00
50866;PMS7003;36839;51.946;21.002;2023-06-14T11:59:43;0.00;0.00;0.00
50866;PMS7003;36839;51.946;21.002;2023-06-14T12:02:14;0.00;0.00;0.00
50866;PMS7003;36839;51.946;21.002;2023-06-14T12:04:42;0.00;0.00;0.00
50866;PMS7003;36839;51.946;21.002;2023-06-14T12:07:13;0.00;0.00;0.00
50866;PMS7003;36839;51.946;21.002;2023-06-14T12:10:25;0.00;0.00;0.00
50866;PMS7003;36839;51.946;21.002;2023-06-14T12:12:38;0.00;0.00;0.00
50866;PMS7003;36839;51.946;21.002;2023-06-14T12:15:10;0.00;0.00;0.00
50866;PMS7003;36839;51.946;21.002;2023-06-14T12:17:39;0.00;0.00;0.00
50866;PMS7003;36839;51.946;21.002;2023-06-14T12:20:09;0.00;0.00;0.00
50866;PMS7003;36839;51.946;21.002;2023-06-14T12:22:37;0.00;0.00;0.00
50866;PMS7003;36839;51.946;21.002;2023-06-14T12:25:06;0.00;0.00;0.00
50866;PMS7003;36839;51.946;21.002;2023-06-14T12:27:39;0.00;0.00;0.00
50866;PMS7003;36839;51.946;21.002;2023-06-14T12:30:15;0.00;0.00;0.00
50866;PMS7003;36839;51.946;21.002;2023-06-14T12:32:47;0.00;0.00;0.00
50866;PMS7003;36839;51.946;21.002;2023-06-14T12:35:17;0.00;0.00;0.00
50866;PMS7003;36839;51.946;21.002;2023-06-14T12:37:56;0.00;0.00;0.00
50866;PMS7003;36839;51.946;21.002;2023-06-14T12:40:35;0.00;0.00;0.00
50866;PMS7003;36839;51.946;21.002;2023-06-14T12:43:06;0.00;0.00;0.00
50866;PMS7003;36839;51.946;21.002;2023-06-14T12:45:34;0.00;0.00;0.00
50866;PMS7003;36839;51.946;21.002;2023-06-14T12:48:03;0.00;0.00;0.00
50866;PMS7003;36839;51.946;21.002;2023-06-14T12:50:34;0.00;0.00;0.00
50866;PMS7003;36839;51.946;21.002;2023-06-14T12:53:00;0.00;0.00;0.00
50866;PMS7003;36839;51.946;21.002;2023-06-14T12:55:28;0.00;0.00;0.00
50866;PMS7003;36839;51.946;21.002;2023-06-14T12:58:12;0.00;0.00;0.00
50866;PMS7003;36839;51.946;21.002;2023-06-14T13:00:47;4.00;4.00;4.00
50866;PMS7003;36839;51.946;21.002;2023-06-14T13:03:14;0.00;0.00;0.00
50866;PMS7003;36839;51.946;21.002;2023-06-14T13:05:46;0.00;0.00;0.00
50866;PMS7003;36839;51.946;21.002;2023-06-14T13:08:21;0.00;0.00;0.00
50866;PMS7003;36839;51.946;21.002;2023-06-14T13:10:53;0.00;0.00;0.00
50866;PMS7003;36839;51.946;21.002;2023-06-14T13:13:22;0.00;0.00;0.00
50866;PMS7003;36839;51.946;21.002;2023-06-14T13:15:49;0.00;0.00;0.00
50866;PMS7003;36839;51.946;21.002;2023-06-14T13:18:18;0.00;0.00;0.00
50866;PMS7003;36839;51.946;21.002;2023-06-14T13:20:51;0.00;0.00;0.00
50866;PMS7003;36839;51.946;21.002;2023-06-14T13:23:26;0.33;0.00;0.00
50866;PMS7003;36839;51.946;21.002;2023-06-14T13:25:56;0.00;0.00;0.00
50866;PMS7003;36839;51.946;21.002;2023-06-14T13:28:23;0.00;0.00;0.00
50866;PMS7003;36839;51.946;21.002;2023-06-14T13:30:51;0.00;0.00;0.00
50866;PMS7003;36839;51.946;21.002;2023-06-14T13:33:17;4.00;4.00;4.00
50866;PMS7003;36839;51.946;21.002;2023-06-14T13:35:47;0.00;0.00;0.00
50866;PMS7003;36839;51.946;21.002;2023-06-14T13:38:17;7.50;7.50;7.50
50866;PMS7003;36839;51.946;21.002;2023-06-14T13:40:44;0.00;0.00;0.00
50866;PMS7003;36839;51.946;21.002;2023-06-14T13:43:22;0.00;0.00;0.00
50866;PMS7003;36839;51.946;21.002;2023-06-14T13:45:53;0.00;0.00;0.00
50866;PMS7003;36839;51.946;21.002;2023-06-14T13:48:34;0.00;0.00;0.00
50866;PMS7003;36839;51.946;21.002;2023-06-14T13:51:02;0.00;0.00;0.00
50866;PMS7003;36839;51.946;21.002;2023-06-14T13:53:31;0.00;0.00;0.00
50866;PMS7003;36839;51.946;21.002;2023-06-14T13:56:04;0.00;0.00;0.00
50866;PMS7003;36839;51.946;21.002;2023-06-14T13:58:35;0.00;0.00;0.00
50866;PMS7003;36839;51.946;21.002;2023-06-14T14:01:02;0.00;0.00;0.00
50866;PMS7003;36839;51.946;21.002;2023-06-14T14:03:32;0.50;0.00;0.00
50866;PMS7003;36839;51.946;21.002;2023-06-14T14:06:01;0.00;0.00;0.00
50866;PMS7003;36839;51.946;21.002;2023-06-14T14:08:30;0.00;0.00;0.00
50866;PMS7003;36839;51.946;21.002;2023-06-14T14:10:58;0.00;0.00;0.00
50866;PMS7003;36839;51.946;21.002;2023-06-14T14:13:27;0.00;0.00;0.00
50866;PMS7003;36839;51.946;21.002;2023-06-14T14:15:58;0.00;0.00;0.00
50866;PMS7003;36839;51.946;21.002;2023-06-14T14:18:26;0.00;0.00;0.00
50866;PMS7003;36839;51.946;21.002;2023-06-14T14:20:55;0.00;0.00;0.00
50866;PMS7003;36839;51.946;21.002;2023-06-14T14:23:24;0.00;0.00;0.00
50866;PMS7003;36839;51.946;21.002;2023-06-14T14:25:52;0.00;0.00;0.00
50866;PMS7003;36839;51.946;21.002;2023-06-14T14:28:22;0.00;0.00;0.00
50866;PMS7003;36839;51.946;21.002;2023-06-14T14:30:50;3.00;0.00;0.00
50866;PMS7003;36839;51.946;21.002;2023-06-14T14:33:16;0.00;0.00;0.00
50866;PMS7003;36839;51.946;21.002;2023-06-14T14:35:43;0.00;0.00;0.00
50866;PMS7003;36839;51.946;21.002;2023-06-14T14:38:14;0.00;0.00;0.00
50866;PMS7003;36839;51.946;21.002;2023-06-14T14:40:42;0.00;0.00;0.00
50866;PMS7003;36839;51.946;21.002;2023-06-14T14:43:15;0.00;0.00;0.00
50866;PMS7003;36839;51.946;21.002;2023-06-14T14:45:42;0.00;0.00;0.00
50866;PMS7003;36839;51.946;21.002;2023-06-14T14:48:18;0.00;0.00;0.00
50866;PMS7003;36839;51.946;21.002;2023-06-14T14:50:47;0.00;0.00;0.00
50866;PMS7003;36839;51.946;21.002;2023-06-14T14:53:13;0.00;0.00;0.00
50866;PMS7003;36839;51.946;21.002;2023-06-14T14:55:49;0.00;0.00;0.00
50866;PMS7003;36839;51.946;21.002;2023-06-14T14:58:20;0.00;0.00;0.00
50866;PMS7003;36839;51.946;21.002;2023-06-14T15:00:57;0.00;0.00;0.00
50866;PMS7003;36839;51.946;21.002;2023-06-14T15:03:26;0.00;0.00;0.00
50866;PMS7003;36839;51.946;21.002;2023-06-14T15:05:59;0.00;0.00;0.00
50866;PMS7003;36839;51.946;21.002;2023-06-14T15:08:26;0.00;0.00;0.00